Time;durP1;ratioP1;P1;durP2;ratioP2;P2;SDS_P1;SDS_P2;PMS_P1;PMS_P2;Temp;Humidity;BMP_temperature;BMP_pressure;BME280_temperature;BME280_humidity;BME280_pressure;Samples;Min_cycle;Max_cycle;Signal;HPM_P1;HPM_P2
2022/12/21 00:02:06;;;;;;;33.15;20.42;;;20.20;59.30;;;;;;5008413;28;20118;-71
2022/12/21 00:04:32;;;;;;;37.95;19.27;;;20.30;60.00;;;;;;5013121;28;20041;-72
2022/12/21 00:06:58;;;;;;;35.75;19.67;;;20.30;59.80;;;;;;5014438;28;20025;-71
2022/12/21 00:09:23;;;;;;;30.88;19.20;;;20.40;59.60;;;;;;4990639;28;20038;-71
2022/12/21 00:11:49;;;;;;;29.95;18.50;;;20.40;59.70;;;;;;4991542;28;20037;-70
2022/12/21 00:14:15;;;;;;;34.25;17.10;;;20.40;59.80;;;;;;4992360;28;20027;-70
2022/12/21 00:16:42;;;;;;;31.23;18.20;;;20.40;60.00;;;;;;4999277;28;20026;-70
2022/12/21 00:19:13;;;;;;;29.42;16.35;;;20.40;60.10;;;;;;5023667;28;20433;-71
2022/12/21 00:21:39;;;;;;;34.25;16.38;;;20.40;60.30;;;;;;5017275;28;20413;-70
2022/12/21 00:24:05;;;;;;;39.28;17.95;;;20.40;60.70;;;;;;5020854;28;20026;-70
2022/12/21 00:26:35;;;;;;;36.90;17.05;;;20.40;60.70;;;;;;5020792;28;20033;-70
2022/12/21 00:29:01;;;;;;;36.70;16.45;;;20.40;60.70;;;;;;5019819;28;20026;-70
2022/12/21 00:31:32;;;;;;;27.45;16.02;;;20.40;60.70;;;;;;5017899;28;20417;-70
2022/12/21 00:33:59;;;;;;;28.38;17.00;;;20.40;60.80;;;;;;5007299;28;20021;-70
2022/12/21 00:36:26;;;;;;;27.00;16.38;;;20.40;60.90;;;;;;5025300;28;20065;-71
2022/12/21 00:38:53;;;;;;;27.50;17.05;;;20.40;60.90;;;;;;5009580;28;20463;-70
2022/12/21 00:41:23;;;;;;;27.50;15.95;;;20.40;61.10;;;;;;5028918;28;20127;-70
2022/12/21 00:43:52;;;;;;;25.50;15.02;;;20.40;61.10;;;;;;5021384;28;20052;-70
2022/12/21 00:46:23;;;;;;;26.83;16.30;;;20.40;61.20;;;;;;5006211;28;20418;-71
2022/12/21 00:48:50;;;;;;;27.45;15.32;;;20.40;61.40;;;;;;5014083;28;20030;-70
2022/12/21 00:51:19;;;;;;;23.27;15.05;;;20.40;61.40;;;;;;5016287;28;20040;-70
2022/12/21 00:53:46;;;;;;;25.90;15.10;;;20.40;61.50;;;;;;5017634;28;20033;-70
2022/12/21 00:56:12;;;;;;;22.70;14.45;;;20.40;61.60;;;;;;5012880;28;20033;-70
2022/12/21 00:58:38;;;;;;;29.38;14.82;;;20.40;61.60;;;;;;5021651;28;20029;-70
2022/12/21 01:01:11;;;;;;;25.35;14.32;;;20.40;61.60;;;;;;5002472;28;20030;-70
2022/12/21 01:03:37;;;;;;;27.63;15.32;;;20.40;61.70;;;;;;5018807;28;20029;-71
2022/12/21 01:06:03;;;;;;;24.77;14.52;;;20.40;61.70;;;;;;5004920;28;20383;-70
2022/12/21 01:08:29;;;;;;;25.02;14.65;;;20.40;61.70;;;;;;5017288;28;20378;-71
2022/12/21 01:11:00;;;;;;;25.80;15.13;;;20.40;61.80;;;;;;5022950;28;20120;-70
2022/12/21 01:13:27;;;;;;;25.50;13.70;;;20.40;61.80;;;;;;5023118;28;20114;-70
2022/12/21 01:15:53;;;;;;;21.98;13.93;;;20.40;61.80;;;;;;5020198;28;20022;-70
2022/12/21 01:18:21;;;;;;;23.80;14.25;;;20.40;61.80;;;;;;5021181;28;20583;-70
2022/12/21 01:20:49;;;;;;;24.98;13.65;;;20.40;62.00;;;;;;5018917;28;20033;-70
2022/12/21 01:23:16;;;;;;;;;;;20.40;62.00;;;;;;5020485;28;20537;-69
2022/12/21 01:25:43;;;;;;;25.83;13.48;;;20.40;62.20;;;;;;4991646;28;19913;-70
2022/12/21 01:28:09;;;;;;;24.73;13.75;;;20.40;62.10;;;;;;5028608;28;20029;-70
2022/12/21 01:30:36;;;;;;;21.00;13.23;;;20.40;62.20;;;;;;5021446;28;20033;-70
2022/12/21 01:33:01;;;;;;;20.58;12.85;;;20.40;62.80;;;;;;5023328;28;20504;-70
2022/12/21 01:35:27;;;;;;;24.30;14.77;;;20.40;62.20;;;;;;5004291;28;20033;-71
2022/12/21 01:37:53;;;;;;;22.90;13.35;;;20.40;62.40;;;;;;5001493;28;20029;-71
2022/12/21 01:40:19;;;;;;;20.17;13.15;;;20.40;62.30;;;;;;4999045;28;20026;-70
2022/12/21 01:42:46;;;;;;;21.63;12.80;;;20.40;62.30;;;;;;5020338;28;20433;-70
2022/12/21 01:45:32;;;;;;;21.20;13.82;;;20.40;62.30;;;;;;5022079;28;20022;-71
2022/12/21 01:48:03;;;;;;;23.13;13.57;;;20.40;62.40;;;;;;5023003;28;20038;-71
2022/12/21 01:50:44;;;;;;;22.10;13.25;;;20.40;62.50;;;;;;5018223;28;20034;-71
2022/12/21 01:53:20;;;;;;;21.60;13.45;;;20.40;62.30;;;;;;5016555;28;20022;-70
2022/12/21 01:55:50;;;;;;;24.65;13.18;;;20.40;62.40;;;;;;5020994;28;20025;-70
2022/12/21 01:58:18;;;;;;;22.65;13.00;;;20.40;62.50;;;;;;5019750;28;20029;-70
2022/12/21 02:00:44;;;;;;;21.55;13.30;;;20.40;62.40;;;;;;5028058;28;20037;-70
2022/12/21 02:03:17;;;;;;;19.50;12.43;;;20.40;62.60;;;;;;5016368;28;20022;-70
2022/12/21 02:06:09;;;;;;;20.67;12.75;;;20.30;62.40;;;;;;5008157;28;20033;-70
2022/12/21 02:08:35;;;;;;;20.83;12.43;;;20.40;62.50;;;;;;5007600;28;20564;-70
2022/12/21 02:11:02;;;;;;;20.77;12.68;;;20.40;62.50;;;;;;5015636;28;20033;-70
2022/12/21 02:13:28;;;;;;;20.17;12.63;;;20.40;62.50;;;;;;5021017;28;20037;-70
2022/12/21 02:16:00;;;;;;;18.55;11.52;;;20.40;62.50;;;;;;5023277;28;20382;-71
2022/12/21 02:18:47;;;;;;;21.67;12.25;;;20.40;62.50;;;;;;5027378;28;20037;-71
2022/12/21 02:21:34;;;;;;;21.25;12.75;;;20.40;62.50;;;;;;5016171;28;20044;-70
2022/12/21 02:24:54;;;;;;;17.95;11.65;;;20.40;62.40;;;;;;5006666;28;20044;-71
2022/12/21 02:27:35;;;;;;;20.45;12.38;;;20.40;62.50;;;;;;4953789;28;20530;-71
2022/12/21 02:30:09;;;;;;;18.08;11.77;;;20.40;62.70;;;;;;5011216;28;20550;-71
2022/12/21 02:33:12;;;;;;;20.27;12.77;;;20.40;62.60;;;;;;5026834;28;20044;-72
2022/12/21 02:35:51;;;;;;;18.25;11.57;;;20.40;62.60;;;;;;5017340;28;20497;-71
2022/12/21 02:38:53;;;;;;;20.27;12.02;;;20.40;62.70;;;;;;5018425;28;20485;-72
2022/12/21 02:41:40;;;;;;;19.75;10.90;;;20.40;62.70;;;;;;5010866;28;20037;-72
2022/12/21 02:44:24;;;;;;;18.52;11.43;;;20.40;62.90;;;;;;5025086;28;20025;-72
2022/12/21 02:47:08;;;;;;;19.58;11.65;;;20.40;62.90;;;;;;5016372;28;20023;-72
2022/12/21 02:49:50;;;;;;;19.20;11.93;;;20.40;62.90;;;;;;5016012;28;20026;-72
2022/12/21 02:52:36;;;;;;;20.33;11.95;;;20.40;63.00;;;;;;5002803;28;20029;-72
2022/12/21 02:55:02;;;;;;;19.23;11.93;;;20.40;63.10;;;;;;5017268;28;20111;-72
2022/12/21 02:57:35;;;;;;;18.80;11.38;;;20.40;63.20;;;;;;4989528;28;20034;-71
2022/12/21 03:00:04;;;;;;;19.00;11.70;;;20.40;63.10;;;;;;5022630;28;20026;-71
2022/12/21 03:03:47;;;;;;;20.05;12.43;;;20.40;63.30;;;;;;5022185;28;20033;-71
2022/12/21 03:05:52;;;;;;;18.15;11.27;;;20.40;63.30;;;;;;5017115;28;20033;-71
2022/12/21 03:08:37;;;;;;;18.10;11.85;;;20.40;63.00;;;;;;5011396;28;20056;-72
2022/12/21 03:11:03;;;;;;;20.98;11.52;;;20.40;63.10;;;;;;5026129;28;20048;-71
2022/12/21 03:13:42;;;;;;;20.30;10.75;;;20.40;63.30;;;;;;5020756;28;20494;-72
2022/12/21 03:16:21;;;;;;;18.02;10.40;;;20.40;63.60;;;;;;5001155;28;20065;-72
2022/12/21 03:19:08;;;;;;;18.47;11.10;;;20.40;63.10;;;;;;5017866;28;20033;-71
2022/12/21 03:21:37;;;;;;;16.90;10.65;;;20.40;63.10;;;;;;5012698;28;20030;-71
2022/12/21 03:24:11;;;;;;;19.90;11.05;;;20.40;63.20;;;;;;5018519;28;20073;-71
2022/12/21 03:26:56;;;;;;;17.30;10.73;;;20.40;63.30;;;;;;5021204;28;20030;-71
2022/12/21 03:29:28;;;;;;;17.50;10.88;;;20.40;63.00;;;;;;5006838;28;20025;-71
2022/12/21 03:32:02;;;;;;;18.63;10.50;;;20.40;63.00;;;;;;5020146;28;20370;-71
2022/12/21 03:34:34;;;;;;;18.98;10.82;;;20.40;62.80;;;;;;5021988;28;20080;-71
2022/12/21 03:37:17;;;;;;;15.43;10.32;;;20.40;62.90;;;;;;5027809;28;20029;-71
2022/12/21 03:39:47;;;;;;;20.63;11.18;;;20.40;62.90;;;;;;5019142;28;20037;-71
2022/12/21 03:42:20;;;;;;;16.42;10.73;;;20.40;62.80;;;;;;5030020;28;20018;-71
2022/12/21 03:45:08;;;;;;;17.65;10.63;;;20.40;62.80;;;;;;5025905;28;20088;-71
2022/12/21 03:47:57;;;;;;;15.90;9.82;;;20.40;62.70;;;;;;5011294;28;20053;-71
2022/12/21 03:50:28;;;;;;;15.48;10.07;;;20.40;62.80;;;;;;5016331;28;20144;-71
2022/12/21 03:53:17;;;;;;;16.77;9.95;;;20.40;63.70;;;;;;5021717;28;20034;-71
2022/12/21 03:55:46;;;;;;;15.82;9.75;;;20.40;63.00;;;;;;5012852;28;20076;-71
2022/12/21 03:58:13;;;;;;;15.80;10.50;;;20.40;62.80;;;;;;5025571;28;20087;-71
2022/12/21 04:00:57;;;;;;;21.27;9.27;;;20.40;62.90;;;;;;5021347;28;20607;-71
2022/12/21 04:03:27;;;;;;;16.38;9.75;;;20.40;64.20;;;;;;5010607;28;20100;-71
2022/12/21 04:05:59;;;;;;;22.33;10.80;;;20.40;63.10;;;;;;5010790;28;20400;-71
2022/12/21 04:08:26;;;;;;;16.42;10.43;;;20.40;62.90;;;;;;5026501;28;20457;-72
2022/12/21 04:10:52;;;;;;;18.45;9.80;;;20.40;63.00;;;;;;5030060;28;20036;-71
2022/12/21 04:13:18;;;;;;;16.15;10.07;;;20.40;63.10;;;;;;5026132;28;20104;-71
2022/12/21 04:21:13;;;;;;;18.02;9.30;;;20.40;63.40;;;;;;5024690;28;20025;-71
2022/12/21 04:29:07;;;;;;;16.73;9.73;;;20.40;62.90;;;;;;5022611;28;20463;-72
2022/12/21 04:31:33;;;;;;;15.75;9.63;;;20.40;63.00;;;;;;5020552;28;20075;-71
2022/12/21 04:33:59;;;;;;;14.80;8.93;;;20.40;63.00;;;;;;5025738;28;20512;-72
2022/12/21 04:39:09;;;;;;;18.25;9.73;;;20.40;64.50;;;;;;5024797;28;20044;-71
2022/12/21 04:41:34;;;;;;;18.27;10.00;;;20.40;63.30;;;;;;5027648;28;20437;-71
2022/12/21 04:44:00;;;;;;;15.13;9.40;;;20.40;63.10;;;;;;5022150;28;20053;-72
2022/12/21 04:46:26;;;;;;;15.00;9.02;;;20.40;63.00;;;;;;5029730;28;20030;-71
2022/12/21 04:48:52;;;;;;;14.02;8.95;;;20.40;62.90;;;;;;5021209;28;20359;-71
2022/12/21 04:51:21;;;;;;;13.35;8.25;;;20.50;63.00;;;;;;5029949;28;20545;-71
2022/12/21 04:53:47;;;;;;;15.82;9.18;;;20.40;63.00;;;;;;5025345;28;20029;-72
2022/12/21 04:56:13;;;;;;;18.85;10.05;;;20.50;62.90;;;;;;5025226;28;20017;-71
2022/12/21 04:58:40;;;;;;;15.80;9.70;;;20.40;62.60;;;;;;5020734;28;20107;-71
2022/12/21 05:01:17;;;;;;;14.80;9.52;;;20.40;62.50;;;;;;5022157;28;20542;-71
2022/12/21 05:03:43;;;;;;;15.95;9.15;;;20.50;62.80;;;;;;5025927;28;20021;-71
2022/12/21 05:06:11;;;;;;;13.77;9.05;;;20.50;62.60;;;;;;5029259;28;20029;-71
2022/12/21 05:08:37;;;;;;;18.95;9.65;;;20.50;62.60;;;;;;5027116;28;20079;-71
2022/12/21 05:11:23;;;;;;;14.32;9.27;;;20.40;62.70;;;;;;5008380;28;20041;-71
2022/12/21 05:13:50;;;;;;;14.85;9.20;;;20.40;62.70;;;;;;5022104;28;20030;-71
2022/12/21 05:16:19;;;;;;;14.52;8.77;;;20.50;62.70;;;;;;5016919;28;20481;-71
2022/12/21 05:18:48;;;;;;;14.70;9.07;;;20.40;62.80;;;;;;5025841;28;20132;-71
2022/12/21 05:21:14;;;;;;;16.02;8.60;;;20.50;62.70;;;;;;4987941;28;20482;-71
2022/12/21 05:23:40;;;;;;;16.83;8.63;;;20.40;62.60;;;;;;5019466;28;20022;-71
2022/12/21 05:26:07;;;;;;;19.20;9.10;;;20.40;62.60;;;;;;5022852;28;20037;-71
2022/12/21 05:28:33;;;;;;;15.85;9.38;;;20.40;62.70;;;;;;5022516;28;20026;-71
2022/12/21 05:30:58;;;;;;;15.25;8.93;;;20.40;62.80;;;;;;5018238;28;20121;-71
2022/12/21 05:33:24;;;;;;;15.13;8.95;;;20.40;62.60;;;;;;5021707;28;20037;-71
2022/12/21 05:35:50;;;;;;;17.23;8.77;;;20.40;62.70;;;;;;5019014;28;20022;-72
2022/12/21 05:38:16;;;;;;;14.18;8.98;;;20.40;62.60;;;;;;5019945;28;20037;-71
2022/12/21 05:40:49;;;;;;;14.55;7.78;;;20.50;62.70;;;;;;5017857;28;20527;-71
2022/12/21 05:43:16;;;;;;;17.08;9.20;;;20.40;62.80;;;;;;5024554;28;20449;-71
2022/12/21 05:45:42;;;;;;;15.38;9.02;;;20.50;62.70;;;;;;5022291;28;20385;-71
2022/12/21 05:48:08;;;;;;;15.35;8.18;;;20.40;63.00;;;;;;5024812;28;20041;-71
2022/12/21 05:50:33;;;;;;;14.73;8.13;;;20.50;62.90;;;;;;5016241;28;20073;-70
2022/12/21 05:53:02;;;;;;;16.58;8.32;;;20.40;62.90;;;;;;5027219;28;20286;-71
2022/12/21 05:55:29;;;;;;;12.77;7.90;;;20.50;63.20;;;;;;5023726;28;20045;-71
2022/12/21 05:57:55;;;;;;;16.02;8.85;;;20.50;64.30;;;;;;5018221;28;20034;-70
2022/12/21 06:00:21;;;;;;;16.08;8.73;;;20.50;63.20;;;;;;5018326;28;20026;-70
2022/12/21 06:02:47;;;;;;;13.95;8.98;;;20.40;63.20;;;;;;4999236;28;20429;-70
2022/12/21 06:05:13;;;;;;;19.45;8.02;;;20.50;63.20;;;;;;5017008;28;20033;-71
2022/12/21 06:07:38;;;;;;;16.23;9.15;;;20.50;63.00;;;;;;5022714;28;20029;-71
2022/12/21 06:10:05;;;;;;;13.45;8.68;;;20.50;62.90;;;;;;5017145;28;20034;-71
2022/12/21 06:12:32;;;;;;;13.50;8.73;;;20.50;62.60;;;;;;5023560;28;20033;-71
2022/12/21 06:14:58;;;;;;;14.73;9.05;;;20.50;62.60;;;;;;5018715;28;20033;-71
2022/12/21 06:17:29;;;;;;;14.88;8.75;;;20.50;62.20;;;;;;5020296;28;20503;-70
2022/12/21 06:19:56;;;;;;;15.95;7.95;;;20.50;62.20;;;;;;5020036;28;20037;-70
2022/12/21 06:22:21;;;;;;;13.98;8.45;;;20.50;62.30;;;;;;5017642;28;20116;-71
2022/12/21 06:24:47;;;;;;;13.82;8.55;;;20.50;62.60;;;;;;4996668;28;20545;-71
2022/12/21 06:27:13;;;;;;;13.55;8.15;;;20.50;62.60;;;;;;5020845;28;20029;-71
2022/12/21 06:29:39;;;;;;;15.80;9.27;;;20.50;62.70;;;;;;5028991;28;20026;-71
2022/12/21 06:32:05;;;;;;;12.00;7.70;;;20.50;63.00;;;;;;5005420;28;20026;-71
2022/12/21 06:34:30;;;;;;;16.52;9.02;;;20.50;63.20;;;;;;5009208;28;20084;-71
2022/12/21 06:36:56;;;;;;;14.27;8.50;;;20.50;63.80;;;;;;5008940;28;20026;-71
2022/12/21 06:39:22;;;;;;;14.93;7.97;;;20.50;62.80;;;;;;5019628;28;20029;-71
2022/12/21 06:41:47;;;;;;;13.05;8.15;;;20.50;62.60;;;;;;5018522;28;20033;-70
2022/12/21 06:44:14;;;;;;;14.23;8.20;;;20.50;62.10;;;;;;5016284;28;20108;-71
2022/12/21 06:46:40;;;;;;;15.20;8.90;;;20.50;62.00;;;;;;5024247;28;20428;-70
2022/12/21 06:49:06;;;;;;;12.38;7.95;;;20.50;62.00;;;;;;5023996;28;20077;-70
2022/12/21 06:51:31;;;;;;;16.27;8.35;;;20.60;62.20;;;;;;5016122;28;20041;-71
2022/12/21 06:53:57;;;;;;;20.50;8.15;;;20.50;62.60;;;;;;5018748;28;20090;-71
2022/12/21 06:56:28;;;;;;;16.05;8.25;;;20.50;63.40;;;;;;5018220;28;20526;-71
2022/12/21 06:58:54;;;;;;;;;;;20.60;63.80;;;;;;5023957;28;20383;-71
2022/12/21 07:01:23;;;;;;;17.33;8.80;;;20.50;63.40;;;;;;5014979;28;19921;-70
2022/12/21 07:03:48;;;;;;;21.20;8.35;;;20.60;64.30;;;;;;5019315;28;20058;-70
2022/12/21 07:06:18;;;;;;;20.15;8.75;;;20.60;64.10;;;;;;5018258;28;20060;-70
2022/12/21 07:08:44;;;;;;;15.77;8.70;;;20.60;64.10;;;;;;5017175;28;20120;-70
2022/12/21 07:11:15;;;;;;;16.05;8.73;;;20.60;63.90;;;;;;5018600;28;20026;-70
2022/12/21 07:13:43;;;;;;;19.17;9.68;;;20.60;63.80;;;;;;5019669;28;20045;-70
2022/12/21 07:16:10;;;;;;;19.10;10.35;;;20.60;63.10;;;;;;5030054;28;20087;-70
2022/12/21 07:18:36;;;;;;;21.02;12.23;;;20.60;62.70;;;;;;5015933;28;20481;-72
2022/12/21 07:21:05;;;;;;;19.88;12.60;;;20.60;62.80;;;;;;5017358;28;20032;-71
2022/12/21 07:23:35;;;;;;;17.15;11.55;;;20.60;62.50;;;;;;5032648;28;20075;-71
2022/12/21 07:26:05;;;;;;;22.13;11.27;;;20.60;62.70;;;;;;5032035;28;20026;-71
2022/12/21 07:28:31;;;;;;;;;;;20.60;62.70;;;;;;5031512;28;20033;-71
2022/12/21 07:31:09;;;;;;;19.08;11.45;;;20.50;62.50;;;;;;5032207;28;20292;-71
2022/12/21 07:33:36;;;;;;;19.65;11.43;;;20.60;62.70;;;;;;5032628;28;20062;-71
2022/12/21 07:36:03;;;;;;;17.63;11.45;;;20.60;62.50;;;;;;5014662;28;20057;-71
2022/12/21 07:38:31;;;;;;;23.40;10.52;;;20.60;62.60;;;;;;5030378;28;20064;-70
2022/12/21 07:40:59;;;;;;;18.88;10.73;;;20.50;62.80;;;;;;5014080;28;20037;-71
2022/12/21 07:43:25;;;;;;;16.95;9.95;;;20.60;62.60;;;;;;5028982;28;20029;-71
2022/12/21 07:46:23;;;;;;;18.05;10.27;;;20.50;62.60;;;;;;4997449;28;20415;-70
2022/12/21 07:48:49;;;;;;;15.63;9.93;;;20.60;62.80;;;;;;5000625;28;20030;-70
2022/12/21 07:51:15;;;;;;;18.77;10.20;;;20.50;62.80;;;;;;5001084;28;20030;-71
2022/12/21 07:53:41;;;;;;;18.40;10.25;;;20.60;62.80;;;;;;5002765;28;20030;-70
2022/12/21 07:56:17;;;;;;;16.13;9.43;;;20.50;62.60;;;;;;5000611;28;20058;-71
2022/12/21 07:58:44;;;;;;;17.00;10.07;;;20.60;62.80;;;;;;4994528;28;20030;-71
2022/12/21 08:01:12;;;;;;;19.10;9.93;;;20.60;62.60;;;;;;4995972;28;20030;-71
2022/12/21 08:03:41;;;;;;;26.25;10.25;;;20.60;62.70;;;;;;5001798;28;20033;-71
2022/12/21 08:06:07;;;;;;;16.00;9.77;;;20.60;62.60;;;;;;4994773;28;20030;-70
2022/12/21 08:08:37;;;;;;;23.08;10.15;;;20.60;62.70;;;;;;4991874;28;20413;-71
2022/12/21 08:11:04;;;;;;;18.77;9.68;;;20.60;62.90;;;;;;4992432;28;20073;-70
2022/12/21 08:13:30;;;;;;;18.75;9.77;;;20.60;64.70;;;;;;4992572;28;20346;-70
2022/12/21 08:16:04;;;;;;;28.50;11.20;;;20.70;64.50;;;;;;4991937;28;20101;-70
2022/12/21 08:18:32;;;;;;;27.60;11.45;;;20.70;66.20;;;;;;4991616;28;20022;-70
2022/12/21 08:20:58;;;;;;;20.00;10.43;;;20.80;67.70;;;;;;4990696;28;20038;-69
2022/12/21 08:23:24;;;;;;;17.15;10.57;;;20.90;68.00;;;;;;4990730;28;20486;-70
2022/12/21 08:25:50;;;;;;;22.67;11.93;;;20.90;64.60;;;;;;4990679;28;20802;-70
2022/12/21 08:28:16;;;;;;;19.90;11.10;;;20.90;66.80;;;;;;4991757;28;20038;-69
2022/12/21 08:30:42;;;;;;;26.08;11.52;;;20.90;67.10;;;;;;4992693;28;20036;-70
2022/12/21 08:33:09;;;;;;;22.60;11.35;;;20.90;67.10;;;;;;5012352;28;20038;-72
2022/12/21 08:35:35;;;;;;;25.23;14.75;;;20.90;66.80;;;;;;5013505;28;20078;-71
2022/12/21 08:38:01;;;;;;;31.42;22.15;;;20.80;66.00;;;;;;5013437;28;20022;-70
2022/12/21 08:40:27;;;;;;;34.08;21.10;;;20.70;63.80;;;;;;5013484;28;20359;-70
2022/12/21 08:42:53;;;;;;;31.60;21.02;;;20.60;63.30;;;;;;5013423;28;20463;-70
2022/12/21 08:45:19;;;;;;;38.15;20.30;;;20.60;60.80;;;;;;5013351;28;20065;-70
2022/12/21 08:47:47;;;;;;;39.05;20.80;;;20.70;61.90;;;;;;5013271;28;20069;-70
2022/12/21 08:50:13;;;;;;;34.50;20.33;;;20.70;61.80;;;;;;5012590;28;20056;-70
2022/12/21 08:52:39;;;;;;;39.63;19.27;;;20.70;61.90;;;;;;5012030;28;20026;-70
2022/12/21 08:55:05;;;;;;;28.23;18.65;;;20.60;62.10;;;;;;5011551;28;20312;-70
2022/12/21 08:57:31;;;;;;;30.23;17.85;;;20.60;62.10;;;;;;5012950;28;20030;-70
2022/12/21 08:59:57;;;;;;;29.35;18.27;;;20.60;62.80;;;;;;5011713;28;20038;-70
2022/12/21 09:02:22;;;;;;;29.15;18.17;;;20.60;62.40;;;;;;5010654;28;20037;-69
2022/12/21 09:04:48;;;;;;;26.73;17.02;;;20.60;62.20;;;;;;5012996;28;20030;-70
2022/12/21 09:07:14;;;;;;;27.27;16.40;;;20.60;62.20;;;;;;5011588;28;20033;-70
2022/12/21 09:09:40;;;;;;;25.15;15.55;;;20.60;62.40;;;;;;5012731;28;20033;-70
2022/12/21 09:12:07;;;;;;;25.83;15.93;;;20.60;62.40;;;;;;5011936;28;20034;-70
2022/12/21 09:14:33;;;;;;;26.40;15.85;;;20.60;62.40;;;;;;5011738;28;20477;-70
2022/12/21 09:16:58;;;;;;;26.02;15.45;;;20.60;62.40;;;;;;5012732;28;20057;-70
2022/12/21 09:19:25;;;;;;;22.60;15.38;;;20.60;62.50;;;;;;5012471;28;20038;-70
2022/12/21 09:21:51;;;;;;;25.40;15.13;;;20.60;62.40;;;;;;5012912;28;20069;-70
2022/12/21 09:24:17;;;;;;;23.20;14.73;;;20.60;62.50;;;;;;5012644;28;20049;-70
2022/12/21 09:26:43;;;;;;;25.92;15.10;;;20.60;62.40;;;;;;5012540;28;20096;-70
2022/12/21 09:29:10;;;;;;;24.83;14.68;;;20.60;62.50;;;;;;5012119;28;20026;-71
2022/12/21 09:31:35;;;;;;;25.10;14.60;;;20.60;62.50;;;;;;5012501;28;20038;-71
2022/12/21 09:34:01;;;;;;;24.50;14.65;;;20.60;62.30;;;;;;5012498;28;20029;-68
2022/12/21 09:36:27;;;;;;;22.50;14.63;;;20.60;62.60;;;;;;5011827;28;20025;-69
2022/12/21 09:38:54;;;;;;;22.83;13.50;;;20.60;62.50;;;;;;5012077;28;20482;-72
2022/12/21 09:41:32;;;;;;;20.73;13.63;;;20.60;62.30;;;;;;5012282;28;20117;-69
2022/12/21 09:44:46;;;;;;;21.15;12.85;;;20.60;62.30;;;;;;5012379;28;20025;-70
2022/12/21 09:47:21;;;;;;;21.30;14.23;;;20.60;62.30;;;;;;5002539;28;20406;-69
2022/12/21 09:50:02;;;;;;;22.48;13.70;;;20.60;62.30;;;;;;5012052;28;20117;-70
2022/12/21 09:52:36;;;;;;;21.40;14.30;;;20.60;62.30;;;;;;5012035;28;20034;-69
2022/12/21 09:55:23;;;;;;;19.00;12.70;;;20.60;62.30;;;;;;5011011;28;20026;-69
2022/12/21 09:57:53;;;;;;;22.95;13.77;;;20.60;62.10;;;;;;5008801;28;20088;-69
2022/12/21 10:00:21;;;;;;;22.65;13.18;;;20.60;62.20;;;;;;4992218;28;20076;-69
2022/12/21 10:02:56;;;;;;;21.92;11.95;;;20.70;62.10;;;;;;4991038;28;20034;-70
2022/12/21 10:05:42;;;;;;;18.80;12.75;;;20.70;62.20;;;;;;4992412;28;20034;-70
2022/12/21 10:08:14;;;;;;;24.35;12.98;;;20.70;63.30;;;;;;5014360;28;20057;-70
2022/12/21 10:11:22;;;;;;;35.25;13.93;;;20.70;63.20;;;;;;5029413;28;20053;-71
2022/12/21 10:14:01;;;;;;;19.20;12.18;;;20.70;63.30;;;;;;5026677;28;20037;-71
2022/12/21 10:16:50;;;;;;;22.08;12.38;;;20.70;63.30;;;;;;5017156;28;20120;-71
2022/12/21 10:19:31;;;;;;;18.77;12.43;;;20.70;63.20;;;;;;5019975;28;20494;-71
2022/12/21 10:22:07;;;;;;;21.73;12.50;;;20.70;63.20;;;;;;5029005;28;20040;-69
2022/12/21 10:24:47;;;;;;;20.35;12.77;;;20.70;63.20;;;;;;5025826;28;20501;-70
2022/12/21 10:27:24;;;;;;;17.98;12.00;;;20.70;63.20;;;;;;5023732;28;20025;-70
2022/12/21 10:29:55;;;;;;;20.23;12.55;;;20.70;63.00;;;;;;5027723;28;20474;-70
2022/12/21 10:32:21;;;;;;;17.42;11.85;;;20.70;62.90;;;;;;5029297;28;20033;-70
2022/12/21 10:34:50;;;;;;;19.73;12.65;;;20.70;62.80;;;;;;5029513;28;20500;-70
2022/12/21 10:37:19;;;;;;;19.17;11.63;;;20.70;62.80;;;;;;5024682;28;20048;-71
2022/12/21 10:39:50;;;;;;;16.77;11.32;;;20.70;62.90;;;;;;5007894;28;20030;-72
2022/12/21 10:42:33;;;;;;;18.23;12.10;;;20.70;63.10;;;;;;5026032;28;20033;-71
2022/12/21 10:44:59;;;;;;;16.98;11.40;;;20.70;63.10;;;;;;5016373;28;20025;-71
2022/12/21 10:47:24;;;;;;;18.08;11.30;;;20.70;63.50;;;;;;5030207;28;20025;-71
2022/12/21 10:50:14;;;;;;;19.27;11.68;;;20.70;63.10;;;;;;5033508;28;20044;-71
2022/12/21 10:52:44;;;;;;;17.08;11.40;;;20.70;63.00;;;;;;5027415;28;20026;-71
2022/12/21 10:55:18;;;;;;;18.00;11.88;;;20.70;62.80;;;;;;5033480;28;20094;-70
2022/12/21 10:58:04;;;;;;;18.75;10.63;;;20.70;62.70;;;;;;5031922;28;20104;-71
2022/12/21 11:00:32;;;;;;;16.73;10.57;;;20.70;62.80;;;;;;5032698;28;20029;-70
2022/12/21 11:03:19;;;;;;;17.48;11.10;;;20.70;62.60;;;;;;5023572;28;20556;-70
2022/12/21 11:05:45;;;;;;;16.73;10.80;;;20.70;62.80;;;;;;5022097;28;20026;-71
2022/12/21 11:08:14;;;;;;;19.40;11.25;;;20.70;62.50;;;;;;5028085;28;20107;-71
2022/12/21 11:10:49;;;;;;;17.75;10.82;;;20.70;62.50;;;;;;5028122;28;20503;-71
2022/12/21 11:13:17;;;;;;;16.42;10.20;;;20.70;62.80;;;;;;5029303;28;20045;-70
2022/12/21 11:16:06;;;;;;;15.48;10.35;;;20.70;62.60;;;;;;5032956;28;20108;-70
2022/12/21 11:18:48;;;;;;;15.88;9.75;;;20.70;62.50;;;;;;5028098;28;20044;-71
2022/12/21 11:21:24;;;;;;;18.48;10.23;;;20.70;62.60;;;;;;5027134;28;20036;-70
2022/12/21 11:23:55;;;;;;;17.23;10.80;;;20.70;62.50;;;;;;5027144;28;20455;-71
2022/12/21 11:26:26;;;;;;;19.50;10.98;;;20.70;62.60;;;;;;5033183;28;20109;-71
2022/12/21 11:29:05;;;;;;;16.02;10.43;;;20.70;62.40;;;;;;5031033;28;20521;-71
2022/12/21 11:31:33;;;;;;;16.30;10.32;;;20.70;62.70;;;;;;5027774;28;20022;-72
2022/12/21 11:33:59;;;;;;;17.27;10.30;;;20.70;62.40;;;;;;5031754;28;20586;-72
2022/12/21 11:36:24;;;;;;;16.65;9.80;;;20.70;62.50;;;;;;5031363;28;20025;-71
2022/12/21 11:38:50;;;;;;;16.23;10.23;;;20.70;62.40;;;;;;5031235;28;20037;-71
2022/12/21 11:41:29;;;;;;;17.50;9.93;;;20.70;62.40;;;;;;5031403;28;20120;-71
2022/12/21 11:43:56;;;;;;;17.00;10.70;;;20.70;61.90;;;;;;5031338;28;20056;-72
2022/12/21 11:46:33;;;;;;;16.15;10.05;;;20.70;62.50;;;;;;5008071;28;20039;-71
2022/12/21 11:49:14;;;;;;;16.55;9.95;;;20.70;62.30;;;;;;5030454;28;20057;-72
2022/12/21 11:52:35;;;;;;;14.85;9.43;;;20.70;62.40;;;;;;5024991;28;20032;-72
2022/12/21 11:55:21;;;;;;;15.18;9.48;;;20.70;62.40;;;;;;4994704;28;20037;-72
2022/12/21 11:57:58;;;;;;;15.85;9.65;;;20.70;62.60;;;;;;5025742;28;20120;-72
2022/12/21 12:00:25;;;;;;;18.27;9.80;;;20.70;62.40;;;;;;5030778;28;20029;-72
2022/12/21 12:03:06;;;;;;;14.60;9.90;;;20.70;62.50;;;;;;5020819;28;20067;-72
2022/12/21 12:06:00;;;;;;;17.83;8.88;;;20.70;62.40;;;;;;5027207;28;20079;-72
2022/12/21 12:08:51;;;;;;;14.43;8.90;;;20.70;62.30;;;;;;5012072;28;20064;-71
2022/12/21 12:11:40;;;;;;;15.25;9.73;;;20.70;62.40;;;;;;5022021;28;20052;-72
2022/12/21 12:14:35;;;;;;;14.65;9.20;;;20.70;62.40;;;;;;5030436;28;20482;-72
2022/12/21 12:17:10;;;;;;;14.43;9.07;;;20.70;62.40;;;;;;5023651;28;20037;-72
2022/12/21 12:20:03;;;;;;;14.90;9.05;;;20.70;62.30;;;;;;5022335;28;20029;-72
2022/12/21 12:23:15;;;;;;;16.20;10.02;;;20.70;62.40;;;;;;5031197;28;20071;-72
2022/12/21 12:25:50;;;;;;;14.50;8.93;;;20.70;62.50;;;;;;5024704;28;20046;-71
2022/12/21 12:28:25;;;;;;;18.60;9.10;;;20.80;62.50;;;;;;5042813;22;20041;-76
2022/12/21 12:31:11;;;;;;;24.10;9.88;;;20.80;62.50;;;;;;5027655;28;20021;-76
2022/12/21 12:34:13;;;;;;;16.00;9.10;;;20.80;63.50;;;;;;5028505;28;20053;-77
2022/12/21 12:37:08;;;;;;;23.58;8.90;;;20.80;62.90;;;;;;4954339;28;20038;-75
2022/12/21 12:40:10;;;;;;;18.75;9.40;;;20.90;63.10;;;;;;5029709;28;20430;-77
2022/12/21 12:42:55;;;;;;;20.63;9.13;;;20.90;63.20;;;;;;5028112;28;20034;-76
2022/12/21 12:45:32;;;;;;;15.50;8.85;;;20.80;63.10;;;;;;5029261;28;20033;-74
2022/12/21 12:48:10;;;;;;;18.17;8.93;;;20.90;63.20;;;;;;5032917;28;20029;-73
2022/12/21 12:51:00;;;;;;;25.58;9.90;;;20.90;63.40;;;;;;5029494;28;20075;-74
2022/12/21 12:53:59;;;;;;;24.92;10.35;;;20.90;63.10;;;;;;5024612;28;20561;-74
2022/12/21 12:56:39;;;;;;;19.23;9.63;;;20.90;63.10;;;;;;5037583;28;20116;-75
2022/12/21 12:59:08;;;;;;;18.05;9.25;;;20.80;63.30;;;;;;5039719;28;20488;-75
2022/12/21 13:01:43;;;;;;;20.05;9.40;;;20.80;62.90;;;;;;5052336;28;20037;-74
2022/12/21 13:04:33;;;;;;;20.25;9.63;;;20.80;63.00;;;;;;5036988;28;20069;-77
2022/12/21 13:07:12;;;;;;;23.80;9.75;;;20.80;63.10;;;;;;5031646;28;20029;-75
2022/12/21 13:09:40;;;;;;;24.40;8.75;;;20.90;63.60;;;;;;5028610;28;20112;-75
2022/12/21 13:12:12;;;;;;;23.80;9.30;;;20.80;63.30;;;;;;5032051;28;20490;-74